createdAt,value
2018-05-23T00:01:00.561Z,15.75
2018-05-23T00:03:30.483Z,15.79
2018-05-23T00:06:00.400Z,15.85
2018-05-23T00:08:30.365Z,15.86
2018-05-23T00:10:59.893Z,15.92
2018-05-23T00:13:29.539Z,15.91
2018-05-23T00:15:59.194Z,15.99
2018-05-23T00:18:28.698Z,15.96
2018-05-23T00:20:58.218Z,15.99
2018-05-23T00:23:27.760Z,16.11
2018-05-23T00:25:57.692Z,16.02
2018-05-23T00:28:27.226Z,16.09
2018-05-23T00:30:56.737Z,16.18
2018-05-23T00:33:26.237Z,16.24
2018-05-23T00:35:55.788Z,16.29
2018-05-23T00:38:26.468Z,16.27
2018-05-23T00:40:56.170Z,16.12
2018-05-23T00:43:25.690Z,16.00
2018-05-23T00:45:55.213Z,15.98
2018-05-23T00:48:24.953Z,16.05
2018-05-23T00:50:54.966Z,16.08
2018-05-23T00:53:24.898Z,16.20
2018-05-23T00:55:54.462Z,16.01
2018-05-23T00:58:23.984Z,16.08
2018-05-23T01:00:53.519Z,16.12
2018-05-23T01:03:23.058Z,16.02
2018-05-23T01:05:52.567Z,16.02
2018-05-23T01:08:22.082Z,16.03
2018-05-23T01:10:51.626Z,15.95
2018-05-23T01:13:21.554Z,15.86
2018-05-23T01:15:51.458Z,15.76
2018-05-23T01:18:21.376Z,15.70
2018-05-23T01:20:50.402Z,15.79
2018-05-23T01:23:19.910Z,15.84
2018-05-23T01:25:49.435Z,15.82
2018-05-23T01:28:18.934Z,15.85
2018-05-23T01:30:48.464Z,15.57
2018-05-23T01:33:17.983Z,15.34
2018-05-23T01:35:47.572Z,15.61
2018-05-23T01:38:17.280Z,15.55
2018-05-23T01:40:46.806Z,15.74
2018-05-23T01:43:16.334Z,15.76
2018-05-23T01:45:46.273Z,15.77
2018-05-23T01:48:15.973Z,15.59
2018-05-23T01:50:45.483Z,15.73
2018-05-23T01:53:15.015Z,15.62
2018-05-23T01:55:44.529Z,15.63
2018-05-23T01:58:14.055Z,15.73
2018-05-23T02:00:43.568Z,15.80
2018-05-23T02:03:13.099Z,15.73
2018-05-23T02:05:43.017Z,15.61
2018-05-23T02:08:12.919Z,15.68
2018-05-23T02:10:42.846Z,15.72
2018-05-23T02:13:12.358Z,15.53
2018-05-23T02:15:41.916Z,15.28
2018-05-23T02:18:11.451Z,15.23
2018-05-23T02:20:41.364Z,15.48
2018-05-23T02:23:11.277Z,15.42
2018-05-23T02:25:41.193Z,15.51
2018-05-23T02:28:11.134Z,15.50
2018-05-23T02:30:40.685Z,15.34
2018-05-23T02:33:10.220Z,15.26
2018-05-23T02:35:40.152Z,15.14
2018-05-23T02:38:10.078Z,15.29
2018-05-23T02:40:39.588Z,15.25
2018-05-23T02:43:08.774Z,15.35
2018-05-23T02:45:38.672Z,15.32
2018-05-23T02:48:08.623Z,15.39
2018-05-23T02:50:38.133Z,15.38
2018-05-23T02:53:07.644Z,15.42
2018-05-23T02:55:37.165Z,15.36
2018-05-23T02:58:06.685Z,15.39
2018-05-23T03:00:36.943Z,15.41
2018-05-23T03:03:06.859Z,15.34
2018-05-23T03:05:36.632Z,15.28
2018-05-23T03:08:06.168Z,15.19
2018-05-23T03:10:36.091Z,15.20
2018-05-23T03:13:06.022Z,15.22
2018-05-23T03:15:35.549Z,15.19
2018-05-23T03:18:05.068Z,15.19
2018-05-23T03:20:34.574Z,15.07
2018-05-23T03:23:04.108Z,15.07
2018-05-23T03:25:33.637Z,15.07
2018-05-23T03:28:03.549Z,15.04
2018-05-23T03:30:33.480Z,15.02
2018-05-23T03:33:02.983Z,15.08
2018-05-23T03:35:32.569Z,15.00
2018-05-23T03:38:02.504Z,14.97
2018-05-23T03:40:32.454Z,14.96
2018-05-23T03:43:01.974Z,14.92
2018-05-23T03:45:31.499Z,14.88
2018-05-23T03:48:01.025Z,14.89
2018-05-23T03:50:30.937Z,14.89
2018-05-23T03:53:00.853Z,14.93
2018-05-23T03:55:30.761Z,15.00
2018-05-23T03:58:00.659Z,15.03
2018-05-23T04:00:46.869Z,15.04
2018-05-23T04:03:33.203Z,15.04
2018-05-23T04:06:19.615Z,15.10
2018-05-23T04:08:49.233Z,15.16
2018-05-23T04:11:18.827Z,15.23
2018-05-23T04:13:48.454Z,15.22
2018-05-23T04:16:17.975Z,15.23
2018-05-23T04:18:47.495Z,15.30
2018-05-23T04:21:17.028Z,15.26
2018-05-23T04:23:46.955Z,15.23
2018-05-23T04:26:16.462Z,15.27
2018-05-23T04:28:45.981Z,15.27
2018-05-23T04:31:15.503Z,15.35
2018-05-23T04:33:45.049Z,15.45
2018-05-23T04:36:14.563Z,15.45
2018-05-23T04:38:44.299Z,15.43
2018-05-23T04:41:13.807Z,15.35
2018-05-23T04:43:43.317Z,15.43
2018-05-23T04:46:12.831Z,15.48
2018-05-23T04:48:42.369Z,15.45
2018-05-23T04:51:12.102Z,15.47
2018-05-23T04:53:42.244Z,15.27
2018-05-23T04:56:12.233Z,14.95
2018-05-23T04:58:41.757Z,15.31
2018-05-23T05:01:11.666Z,15.35
2018-05-23T05:03:41.189Z,15.32
2018-05-23T05:06:11.139Z,15.14
2018-05-23T05:08:40.665Z,15.04
2018-05-23T05:11:10.186Z,15.22
2018-05-23T05:13:39.740Z,15.03
2018-05-23T05:16:09.842Z,15.20
2018-05-23T05:18:39.756Z,15.43
2018-05-23T05:21:09.668Z,15.57
2018-05-23T05:23:39.608Z,15.65
2018-05-23T05:26:09.133Z,15.68
2018-05-23T05:28:38.710Z,15.78
2018-05-23T05:31:08.244Z,15.86
2018-05-23T05:33:37.763Z,16.00
2018-05-23T05:36:07.284Z,16.02
2018-05-23T05:38:36.870Z,16.10
2018-05-23T05:41:05.708Z,16.09
2018-05-23T05:43:35.630Z,16.06
2018-05-23T05:46:05.225Z,16.13
2018-05-23T05:48:35.152Z,16.10
2018-05-23T05:51:05.083Z,16.23
2018-05-23T05:53:34.631Z,16.20
2018-05-23T05:56:04.315Z,16.24
2018-05-23T05:58:33.819Z,16.33
2018-05-23T06:01:03.333Z,16.39
2018-05-23T06:03:32.900Z,16.52
2018-05-23T06:06:02.449Z,16.55
2018-05-23T06:08:32.456Z,16.57
2018-05-23T06:11:01.994Z,16.61
2018-05-23T06:13:31.501Z,16.72
2018-05-23T06:16:01.031Z,16.81
2018-05-23T06:18:30.547Z,16.89
2018-05-23T06:21:00.475Z,16.93
2018-05-23T06:23:30.634Z,16.78
2018-05-23T06:26:00.169Z,16.77
2018-05-23T06:28:29.524Z,16.57
2018-05-23T06:30:59.042Z,16.54
2018-05-23T06:33:28.560Z,16.52
2018-05-23T06:35:58.091Z,16.44
2018-05-23T06:38:27.662Z,16.45
2018-05-23T06:40:57.172Z,16.49
2018-05-23T06:43:26.770Z,16.50
2018-05-23T06:45:56.417Z,16.58
2018-05-23T06:48:25.942Z,16.56
2018-05-23T06:50:55.918Z,16.66
2018-05-23T06:53:25.834Z,16.61
2018-05-23T06:55:55.402Z,16.66
2018-05-23T06:58:24.948Z,16.60
2018-05-23T07:00:54.536Z,16.66
2018-05-23T07:03:24.089Z,16.45
2018-05-23T07:05:53.665Z,16.50
2018-05-23T07:08:23.490Z,16.50
2018-05-23T07:10:53.043Z,16.48
2018-05-23T07:13:22.956Z,16.53
2018-05-23T07:15:52.492Z,16.59
2018-05-23T07:18:22.018Z,16.77
2018-05-23T07:20:51.572Z,16.87
2018-05-23T07:23:21.180Z,16.75
2018-05-23T07:25:51.124Z,16.93
2018-05-23T07:28:21.248Z,16.78
2018-05-23T07:30:50.770Z,16.83
2018-05-23T07:33:20.304Z,16.83
2018-05-23T07:35:49.833Z,16.94
2018-05-23T07:38:19.846Z,17.07
2018-05-23T07:40:49.881Z,17.17
2018-05-23T07:43:19.393Z,17.22
2018-05-23T07:45:48.973Z,17.33
2018-05-23T07:48:18.634Z,17.39
2018-05-23T07:50:48.138Z,17.50
2018-05-23T07:53:17.756Z,17.58
2018-05-23T07:55:47.379Z,17.70
2018-05-23T07:58:16.918Z,17.67
2018-05-23T08:00:46.858Z,17.75
2018-05-23T08:03:16.378Z,17.76
2018-05-23T08:05:45.904Z,17.69
2018-05-23T08:08:15.447Z,17.69
2018-05-23T08:10:45.358Z,17.71
2018-05-23T08:13:15.286Z,17.54
2018-05-23T08:15:45.195Z,17.60
2018-05-23T08:18:15.140Z,17.51
2018-05-23T08:20:44.650Z,17.73
2018-05-23T08:23:14.164Z,17.84
2018-05-23T08:25:43.686Z,17.91
2018-05-23T08:28:13.219Z,17.73
2018-05-23T08:30:43.134Z,17.77
2018-05-23T08:33:13.056Z,17.94
2018-05-23T08:35:43.006Z,18.01
2018-05-23T08:38:12.518Z,18.17
2018-05-23T08:40:42.134Z,18.19
2018-05-23T08:43:11.728Z,18.31
2018-05-23T08:45:41.235Z,18.40
2018-05-23T08:48:10.746Z,18.41
2018-05-23T08:50:40.293Z,18.54
2018-05-23T08:53:09.801Z,18.41
2018-05-23T08:55:39.362Z,18.44
2018-05-23T08:58:09.368Z,18.50
2018-05-23T09:00:38.916Z,18.46
2018-05-23T09:03:08.449Z,18.29
2018-05-23T09:05:38.376Z,18.22
2018-05-23T09:08:08.288Z,18.27
2018-05-23T09:10:38.724Z,18.61
2018-05-23T09:13:08.234Z,18.92
2018-05-23T09:15:37.758Z,19.12
2018-05-23T09:18:07.308Z,19.20
2018-05-23T09:20:36.832Z,19.39
2018-05-23T09:23:06.749Z,19.65
2018-05-23T09:25:36.685Z,19.90
2018-05-23T09:28:05.870Z,19.87
2018-05-23T09:30:35.806Z,20.18
2018-05-23T09:33:05.334Z,20.05
2018-05-23T09:35:35.044Z,20.32
2018-05-23T09:38:04.583Z,20.51
2018-05-23T09:40:34.659Z,20.59
2018-05-23T09:43:04.726Z,20.47
2018-05-23T09:45:34.804Z,20.68
2018-05-23T09:48:04.891Z,20.68
2018-05-23T09:50:35.017Z,20.87
2018-05-23T09:53:05.130Z,21.08
2018-05-23T09:55:35.224Z,21.51
2018-05-23T09:58:04.964Z,21.44
2018-05-23T10:00:35.057Z,21.78
2018-05-23T10:03:05.126Z,21.24
2018-05-23T10:05:35.628Z,20.71
2018-05-23T10:08:05.702Z,20.66
2018-05-23T10:10:35.758Z,21.29
2018-05-23T10:13:05.507Z,21.34
2018-05-23T10:15:35.612Z,21.10
2018-05-23T10:18:05.679Z,20.98
2018-05-23T10:20:35.749Z,21.02
2018-05-23T10:23:05.589Z,20.80
2018-05-23T10:25:36.086Z,21.06
2018-05-23T10:28:06.153Z,21.42
2018-05-23T10:30:37.328Z,21.75
2018-05-23T10:33:07.410Z,21.82
2018-05-23T10:35:37.895Z,21.80
2018-05-23T10:38:08.036Z,22.11
2018-05-23T10:40:38.127Z,22.23
2018-05-23T10:43:08.238Z,22.37
2018-05-23T10:45:38.321Z,21.24
2018-05-23T10:48:08.489Z,21.19
2018-05-23T10:50:38.823Z,21.98
2018-05-23T10:53:08.957Z,22.30
2018-05-23T10:55:39.114Z,22.27
2018-05-23T10:58:09.200Z,22.46
2018-05-23T11:00:39.275Z,22.56
2018-05-23T11:03:09.357Z,22.57
2018-05-23T11:05:39.888Z,22.51
2018-05-23T11:08:10.193Z,22.75
2018-05-23T11:10:40.309Z,22.97
2018-05-23T11:13:10.475Z,23.51
2018-05-23T11:15:40.686Z,23.77
2018-05-23T11:18:10.800Z,23.99
2018-05-23T11:20:41.031Z,24.05
2018-05-23T11:23:11.113Z,24.21
2018-05-23T11:25:41.407Z,24.29
2018-05-23T11:28:11.496Z,24.53
2018-05-23T11:30:41.568Z,23.59
2018-05-23T11:33:11.633Z,23.48
2018-05-23T11:35:41.709Z,23.30
2018-05-23T11:38:11.978Z,22.48
2018-05-23T11:40:42.049Z,22.40
2018-05-23T11:43:12.157Z,22.35
2018-05-23T11:45:42.215Z,22.06
2018-05-23T11:48:12.698Z,22.40
2018-05-23T11:50:42.773Z,23.10
2018-05-23T11:53:13.228Z,22.42
2018-05-23T11:55:43.499Z,21.44
2018-05-23T11:58:13.583Z,21.29
2018-05-23T12:00:44.054Z,21.63
2018-05-23T12:03:14.514Z,22.18
2018-05-23T12:05:44.612Z,22.85
2018-05-23T12:08:15.082Z,22.48
2018-05-23T12:10:45.222Z,22.53
2018-05-23T12:13:15.843Z,22.28
2018-05-23T12:15:45.925Z,22.06
2018-05-23T12:18:16.017Z,22.40
2018-05-23T12:20:46.534Z,22.73
2018-05-23T12:23:16.625Z,23.17
2018-05-23T12:25:46.725Z,23.04
2018-05-23T12:28:16.793Z,23.01
2018-05-23T12:30:46.893Z,23.50
2018-05-23T12:33:16.977Z,23.08
2018-05-23T12:35:47.061Z,23.38
2018-05-23T12:38:17.127Z,23.62
2018-05-23T12:40:47.262Z,22.76
2018-05-23T12:43:17.332Z,22.97
2018-05-23T12:45:47.807Z,23.27
2018-05-23T12:48:17.937Z,22.37
2018-05-23T12:50:48.177Z,21.87
2018-05-23T12:53:18.333Z,22.39
2018-05-23T12:55:48.499Z,22.69
2018-05-23T12:58:18.588Z,22.75
2018-05-23T13:00:48.691Z,22.45
2018-05-23T13:03:18.785Z,22.07
2018-05-23T13:05:48.861Z,21.89
2018-05-23T13:08:18.935Z,21.93
2018-05-23T13:10:49.424Z,22.39
2018-05-23T13:13:19.506Z,22.69
2018-05-23T13:15:49.577Z,22.47
2018-05-23T13:18:19.665Z,22.68
2018-05-23T13:20:49.755Z,23.28
2018-05-23T13:23:20.229Z,23.56
2018-05-23T13:25:50.416Z,23.20
2018-05-23T13:28:20.591Z,22.92
2018-05-23T13:30:50.682Z,22.67
2018-05-23T13:33:20.827Z,22.71
2018-05-23T13:35:50.909Z,22.30
2018-05-23T13:38:20.983Z,22.35
2018-05-23T13:40:51.089Z,23.18
2018-05-23T13:43:21.146Z,23.67
2018-05-23T13:45:51.273Z,23.40
2018-05-23T13:48:21.351Z,23.41
2018-05-23T13:50:51.421Z,23.18
2018-05-23T13:53:21.479Z,22.61
2018-05-23T13:55:51.547Z,22.79
2018-05-23T13:58:21.613Z,22.69
2018-05-23T14:00:51.681Z,23.28
2018-05-23T14:03:21.876Z,23.69
2018-05-23T14:05:51.972Z,23.97
2018-05-23T14:08:22.037Z,24.31
2018-05-23T14:10:52.397Z,23.87
2018-05-23T14:13:22.490Z,23.84
2018-05-23T14:15:52.589Z,23.96
2018-05-23T14:18:23.067Z,23.56
2018-05-23T14:20:53.229Z,22.88
2018-05-23T14:23:23.715Z,22.27
2018-05-23T14:25:53.792Z,22.22
2018-05-23T14:28:24.321Z,22.62
2018-05-23T14:30:54.527Z,22.62
2018-05-23T14:33:25.004Z,22.68
2018-05-23T14:35:55.149Z,22.78
2018-05-23T14:38:25.380Z,23.17
2018-05-23T14:40:55.162Z,23.15
2018-05-23T14:43:25.277Z,22.65
2018-05-23T14:45:55.926Z,22.52
2018-05-23T14:48:26.006Z,22.58
2018-05-23T14:50:56.090Z,22.97
2018-05-23T14:53:26.187Z,23.20
2018-05-23T14:55:56.263Z,23.43
2018-05-23T14:58:26.331Z,23.50
2018-05-23T15:00:56.431Z,23.76
2018-05-23T15:03:26.579Z,24.24
2018-05-23T15:05:56.656Z,24.39
2018-05-23T15:08:26.769Z,24.49
2018-05-23T15:10:57.013Z,24.30
2018-05-23T15:13:27.111Z,24.24
2018-05-23T15:15:57.204Z,23.70
2018-05-23T15:18:27.759Z,23.09
2018-05-23T15:20:57.839Z,22.79
2018-05-23T15:23:27.951Z,22.84
2018-05-23T15:25:58.044Z,22.74
2018-05-23T15:28:28.137Z,22.80
2018-05-23T15:30:58.207Z,22.75
2018-05-23T15:33:28.307Z,22.85
2018-05-23T15:35:58.387Z,22.87
2018-05-23T15:38:28.467Z,22.66
2018-05-23T15:40:58.091Z,22.76
2018-05-23T15:43:28.572Z,23.22
2018-05-23T15:45:58.647Z,23.53
2018-05-23T15:48:29.113Z,23.43
2018-05-23T15:50:59.203Z,23.28
2018-05-23T15:53:29.272Z,23.52
2018-05-23T15:55:59.355Z,23.69
2018-05-23T15:58:29.421Z,23.89
2018-05-23T16:00:59.483Z,24.10
2018-05-23T16:03:29.549Z,24.22
2018-05-23T16:05:59.653Z,24.43
2018-05-23T16:08:29.908Z,24.36
2018-05-23T16:11:00.036Z,24.20
2018-05-23T16:13:30.181Z,24.00
2018-05-23T16:16:00.660Z,23.95
2018-05-23T16:18:30.745Z,24.01
2018-05-23T16:21:00.818Z,23.52
2018-05-23T16:23:30.912Z,23.39
2018-05-23T16:26:00.984Z,23.21
2018-05-23T16:28:32.247Z,23.04
2018-05-23T16:31:02.324Z,22.90
2018-05-23T16:33:32.393Z,22.58
2018-05-23T16:36:02.666Z,22.43
2018-05-23T16:38:32.736Z,22.57
2018-05-23T16:41:02.820Z,22.79
2018-05-23T16:43:33.274Z,23.01
2018-05-23T16:46:03.346Z,23.23
2018-05-23T16:48:33.420Z,23.36
2018-05-23T16:51:03.503Z,23.19
2018-05-23T16:53:33.976Z,23.28
2018-05-23T16:56:04.050Z,23.29
2018-05-23T16:58:34.506Z,23.40
2018-05-23T17:01:04.244Z,23.33
2018-05-23T17:03:34.332Z,23.38
2018-05-23T17:06:04.424Z,23.27
2018-05-23T17:08:34.502Z,23.15
2018-05-23T17:11:04.588Z,23.16
2018-05-23T17:13:34.752Z,23.00
2018-05-23T17:16:04.526Z,22.99
2018-05-23T17:18:34.590Z,22.93
2018-05-23T17:21:04.672Z,22.84
2018-05-23T17:23:34.804Z,22.80
2018-05-23T17:26:04.869Z,22.71
2018-05-23T17:28:35.065Z,22.80
2018-05-23T17:31:04.913Z,22.75
2018-05-23T17:33:36.222Z,22.82
2018-05-23T17:36:06.536Z,22.81
2018-05-23T17:38:36.607Z,22.83
2018-05-23T17:41:08.961Z,22.86
2018-05-23T17:43:39.144Z,22.75
2018-05-23T17:46:08.950Z,22.61
2018-05-23T17:48:39.186Z,22.54
2018-05-23T17:51:09.256Z,22.55
2018-05-23T17:53:39.710Z,22.65
2018-05-23T17:56:09.830Z,22.70
2018-05-23T17:58:39.922Z,22.61
2018-05-23T18:01:10.403Z,22.55
2018-05-23T18:03:40.519Z,22.38
2018-05-23T18:06:10.619Z,22.31
2018-05-23T18:08:40.885Z,21.96
2018-05-23T18:11:10.961Z,22.12
2018-05-23T18:13:41.057Z,21.99
2018-05-23T18:16:11.538Z,21.98
2018-05-23T18:18:41.603Z,21.95
2018-05-23T18:21:12.139Z,21.77
2018-05-23T18:23:42.677Z,21.47
2018-05-23T18:26:12.920Z,21.36
2018-05-23T18:28:42.996Z,21.38
2018-05-23T18:31:13.494Z,21.35
2018-05-23T18:33:43.567Z,21.31
2018-05-23T18:36:13.669Z,21.26
2018-05-23T18:38:44.163Z,21.22
2018-05-23T18:41:14.264Z,21.13
2018-05-23T18:43:44.354Z,21.08
2018-05-23T18:46:14.458Z,21.05
2018-05-23T18:48:44.936Z,21.01
2018-05-23T18:51:15.032Z,20.96
2018-05-23T18:53:45.100Z,20.86
2018-05-23T18:56:15.196Z,20.85
2018-05-23T18:58:45.274Z,20.74
2018-05-23T19:01:15.372Z,20.68
2018-05-23T19:03:45.846Z,20.67
2018-05-23T19:06:15.948Z,20.61
2018-05-23T19:08:46.048Z,20.57
2018-05-23T19:11:16.516Z,20.53
2018-05-23T19:13:46.608Z,20.50
2018-05-23T19:16:17.294Z,20.45
2018-05-23T19:18:47.417Z,20.41
2018-05-23T19:21:17.504Z,20.35
2018-05-23T19:23:47.664Z,20.33
2018-05-23T19:26:17.762Z,20.32
2018-05-23T19:28:47.837Z,20.37
2018-05-23T19:31:18.016Z,20.40
2018-05-23T19:33:48.114Z,20.43
2018-05-23T19:36:18.274Z,20.42
2018-05-23T19:38:48.387Z,20.46
2018-05-23T19:41:18.530Z,20.40
2018-05-23T19:43:48.764Z,20.37
2018-05-23T19:46:18.876Z,20.41
2018-05-23T19:48:49.733Z,20.35
2018-05-23T19:51:19.800Z,20.34
2018-05-23T19:53:49.895Z,20.29
2018-05-23T19:56:19.988Z,20.18
2018-05-23T19:58:50.097Z,20.03
2018-05-23T20:01:20.198Z,20.01
2018-05-23T20:03:50.666Z,20.01
2018-05-23T20:06:20.750Z,19.95
2018-05-23T20:08:51.260Z,19.99
2018-05-23T20:11:21.334Z,19.92
2018-05-23T20:13:51.428Z,19.90
2018-05-23T20:16:21.909Z,19.92
2018-05-23T20:18:51.991Z,19.90
2018-05-23T20:21:22.091Z,20.09
2018-05-23T20:23:53.416Z,20.05
2018-05-23T20:26:23.497Z,20.00
2018-05-23T20:28:53.643Z,19.90
2018-05-23T20:31:23.801Z,19.77
2018-05-23T20:33:54.082Z,19.72
2018-05-23T20:36:24.418Z,19.73
2018-05-23T20:38:54.651Z,19.72
2018-05-23T20:41:24.780Z,19.81
2018-05-23T20:43:55.257Z,19.94
2018-05-23T20:46:25.342Z,19.95
2018-05-23T20:48:55.807Z,19.94
2018-05-23T20:51:25.907Z,19.91
2018-05-23T20:53:56.109Z,19.93
2018-05-23T20:56:26.227Z,19.71
2018-05-23T20:58:56.422Z,19.75
2018-05-23T21:01:26.657Z,19.73
2018-05-23T21:03:57.163Z,19.71
2018-05-23T21:06:27.258Z,19.82
2018-05-23T21:08:57.335Z,19.91
2018-05-23T21:11:28.091Z,19.84
2018-05-23T21:13:58.292Z,19.76
2018-05-23T21:16:28.768Z,19.70
2018-05-23T21:18:58.391Z,19.53
2018-05-23T21:21:27.916Z,19.51
2018-05-23T21:23:57.190Z,19.36
2018-05-23T21:26:26.503Z,19.26
2018-05-23T21:28:56.026Z,19.19
2018-05-23T21:31:25.793Z,19.24
2018-05-23T21:33:55.751Z,19.10
2018-05-23T21:36:25.361Z,19.05
2018-05-23T21:38:54.926Z,18.66
2018-05-23T21:41:24.881Z,18.54
2018-05-23T21:43:54.451Z,18.51
2018-05-23T21:46:24.001Z,18.43
2018-05-23T21:48:53.593Z,18.39
2018-05-23T21:51:23.166Z,18.23
2018-05-23T21:53:52.768Z,18.13
2018-05-23T21:56:24.000Z,18.14
2018-05-23T21:58:53.941Z,18.02
2018-05-23T22:01:23.870Z,18.01
2018-05-23T22:03:53.391Z,17.99
2018-05-23T22:06:22.983Z,17.84
2018-05-23T22:08:53.239Z,17.71
2018-05-23T22:11:22.735Z,17.71
2018-05-23T22:13:52.288Z,17.47
2018-05-23T22:16:21.872Z,17.40
2018-05-23T22:23:29.102Z,17.63
2018-05-23T22:25:58.621Z,17.69
2018-05-23T22:28:28.147Z,17.80
2018-05-23T22:30:58.082Z,17.70
2018-05-23T22:33:27.600Z,17.32
2018-05-23T22:35:57.195Z,17.02
2018-05-23T22:38:26.839Z,16.77
2018-05-23T22:40:56.343Z,16.65
2018-05-23T22:43:25.869Z,16.61
2018-05-23T22:45:55.391Z,16.56
2018-05-23T22:48:25.309Z,16.44
2018-05-23T22:50:55.291Z,16.39
2018-05-23T22:53:25.276Z,16.28
2018-05-23T22:55:54.853Z,16.10
2018-05-23T22:58:25.497Z,16.10
2018-05-23T23:00:55.007Z,16.11
2018-05-23T23:03:24.523Z,16.07
2018-05-23T23:05:54.051Z,16.19
2018-05-23T23:08:23.665Z,16.21
2018-05-23T23:10:53.179Z,16.26
2018-05-23T23:13:22.716Z,16.18
2018-05-23T23:15:52.621Z,16.27
2018-05-23T23:18:22.599Z,16.32
2018-05-23T23:20:52.663Z,16.31
2018-05-23T23:23:22.589Z,16.46
2018-05-23T23:25:52.511Z,16.51
2018-05-23T23:28:22.428Z,16.60
2018-05-23T23:30:52.486Z,16.59
2018-05-23T23:33:21.998Z,16.65
2018-05-23T23:35:51.531Z,16.64
2018-05-23T23:38:21.079Z,16.62
2018-05-23T23:40:50.672Z,16.63
2018-05-23T23:43:20.203Z,16.66
2018-05-23T23:45:49.728Z,16.80
2018-05-23T23:48:19.256Z,16.77
2018-05-23T23:50:48.773Z,16.84
2018-05-23T23:53:18.696Z,16.88
2018-05-23T23:55:48.687Z,16.91
2018-05-23T23:58:18.224Z,16.93
